Time;durP1;ratioP1;P1;durP2;ratioP2;P2;SDS_P1;SDS_P2;PMS_P1;PMS_P2;Temp;Humidity;BMP_temperature;BMP_pressure;BME280_temperature;BME280_humidity;BME280_pressure;Samples;Min_cycle;Max_cycle;Signal;HPM_P1;HPM_P2
2022/09/18 00:04:30;;;;;;;2.33;0.45;;;21.10;51.10;;;;;;20902677;28;20040;-79
2022/09/18 00:14:30;;;;;;;5.40;1.00;;;21.10;51.10;;;;;;20891620;28;20079;-78
2022/09/18 00:24:31;;;;;;;3.15;1.05;;;21.10;51.10;;;;;;20907106;28;20095;-78
2022/09/18 00:34:31;;;;;;;2.88;1.05;;;21.00;51.00;;;;;;20890177;28;20120;-78
2022/09/18 00:44:37;;;;;;;2.95;1.05;;;21.00;51.00;;;;;;20905144;28;20098;-78
2022/09/18 00:54:40;;;;;;;2.15;0.75;;;21.00;50.90;;;;;;20904882;28;20048;-78
2022/09/18 01:04:41;;;;;;;2.15;0.73;;;20.90;50.80;;;;;;20871959;28;20029;-78
2022/09/18 01:15:02;;;;;;;3.28;1.13;;;20.90;50.80;;;;;;20871593;28;20490;-77
2022/09/18 01:25:26;;;;;;;5.50;1.70;;;20.90;50.80;;;;;;20882177;28;20041;-78
2022/09/18 01:35:38;;;;;;;2.78;0.80;;;20.90;50.80;;;;;;21217963;22;20187;-78
2022/09/18 01:45:42;;;;;;;2.28;0.43;;;20.90;50.80;;;;;;20722736;28;20132;-79
2022/09/18 01:55:47;;;;;;;2.40;0.80;;;20.80;50.70;;;;;;20738693;28;20077;-78
2022/09/18 02:06:09;;;;;;;2.03;0.80;;;20.80;50.60;;;;;;20738221;28;20468;-79
2022/09/18 02:16:18;;;;;;;2.17;0.65;;;20.80;50.60;;;;;;20718594;28;20049;-77
2022/09/18 02:26:18;;;;;;;2.17;0.60;;;20.80;50.60;;;;;;20737048;28;20499;-78
2022/09/18 02:36:22;;;;;;;1.93;0.87;;;20.80;50.60;;;;;;20719072;28;20037;-78
2022/09/18 02:46:33;;;;;;;1.25;0.43;;;20.80;50.60;;;;;;20733650;28;20774;-78
2022/09/18 02:56:41;;;;;;;1.13;0.52;;;20.70;50.50;;;;;;20765485;28;20068;-78
2022/09/18 03:06:42;;;;;;;2.13;0.52;;;20.80;50.60;;;;;;20749049;28;20041;-78
2022/09/18 03:16:43;;;;;;;2.85;1.00;;;20.70;50.60;;;;;;20732840;28;20041;-78
2022/09/18 03:26:44;;;;;;;2.58;0.77;;;20.70;50.50;;;;;;20731151;28;20103;-78
2022/09/18 03:36:46;;;;;;;1.95;0.60;;;20.70;50.50;;;;;;20748749;28;20037;-79
2022/09/18 03:46:47;;;;;;;2.00;0.63;;;20.60;50.50;;;;;;20729396;28;20046;-79
2022/09/18 03:56:48;;;;;;;2.30;0.82;;;20.60;50.50;;;;;;20745489;28;20038;-79
2022/09/18 04:07:09;;;;;;;0.85;0.38;;;20.60;50.50;;;;;;20729152;28;20033;-78
2022/09/18 04:17:26;;;;;;;2.33;0.70;;;20.60;50.40;;;;;;20730707;28;20045;-78
2022/09/18 04:27:27;;;;;;;1.77;0.47;;;20.60;50.40;;;;;;20726881;28;20030;-78
2022/09/18 04:37:27;;;;;;;2.83;0.60;;;20.50;50.30;;;;;;20744592;28;20300;-79
2022/09/18 04:47:29;;;;;;;2.35;0.65;;;20.60;50.40;;;;;;20724435;28;20045;-79
2022/09/18 04:57:31;;;;;;;1.33;0.50;;;20.50;50.40;;;;;;20742818;28;20041;-79
2022/09/18 05:07:31;;;;;;;1.75;0.43;;;20.50;50.30;;;;;;20740795;28;20122;-78
2022/09/18 05:17:32;;;;;;;4.38;1.00;;;20.50;50.30;;;;;;20723994;28;20038;-79
2022/09/18 05:27:35;;;;;;;1.95;0.50;;;20.50;50.40;;;;;;20740665;28;20038;-78
2022/09/18 05:37:36;;;;;;;1.80;0.63;;;20.40;51.00;;;;;;20772398;28;20095;-79
2022/09/18 05:47:37;;;;;;;1.48;0.47;;;20.50;50.40;;;;;;20723279;28;20558;-78
2022/09/18 05:57:38;;;;;;;1.05;0.30;;;20.40;50.40;;;;;;20722083;28;20034;-79
2022/09/18 06:07:39;;;;;;;1.20;0.50;;;20.40;50.40;;;;;;20721723;28;20072;-78
2022/09/18 06:17:40;;;;;;;1.10;0.35;;;20.40;50.40;;;;;;20739720;28;20052;-78
2022/09/18 06:27:41;;;;;;;2.28;0.70;;;20.30;50.40;;;;;;20738264;28;20071;-78
2022/09/18 06:37:41;;;;;;;3.35;0.40;;;20.30;51.00;;;;;;20813270;28;20126;-79
2022/09/18 06:47:47;;;;;;;2.60;0.40;;;20.30;50.40;;;;;;20740052;28;20038;-77
2022/09/18 06:57:57;;;;;;;1.07;0.27;;;20.30;50.40;;;;;;20750686;28;20299;-76
2022/09/18 07:07:58;;;;;;;2.25;0.55;;;20.30;50.40;;;;;;20750531;28;20277;-75
2022/09/18 07:18:02;;;;;;;3.28;0.60;;;20.30;50.40;;;;;;20749600;28;20038;-75
2022/09/18 07:28:05;;;;;;;1.65;0.40;;;20.20;50.30;;;;;;20739692;28;20037;-77
2022/09/18 07:38:06;;;;;;;1.33;0.40;;;20.30;50.40;;;;;;20712639;28;20041;-70
2022/09/18 07:48:31;;;;;;;3.30;0.57;;;20.20;50.40;;;;;;20720764;28;20038;-72
2022/09/18 07:58:42;;;;;;;2.90;0.70;;;20.20;50.50;;;;;;20723534;28;20065;-73
2022/09/18 08:08:49;;;;;;;5.28;1.08;;;20.30;50.50;;;;;;20744133;28;20030;-74
2022/09/18 08:19:11;;;;;;;2.88;0.52;;;20.30;50.50;;;;;;20699985;28;20053;-74
2022/09/18 08:29:19;;;;;;;1.75;0.60;;;20.40;50.50;;;;;;20727115;28;20026;-70
2022/09/18 08:39:34;;;;;;;0.90;0.30;;;20.40;50.40;;;;;;20738489;28;20041;-72
2022/09/18 08:49:56;;;;;;;2.60;0.45;;;20.40;50.30;;;;;;20704758;28;20400;-71
2022/09/18 09:00:23;;;;;;;0.70;0.20;;;20.50;50.10;;;;;;20723994;28;20038;-72
2022/09/18 09:11:04;;;;;;;3.10;0.73;;;20.70;50.00;;;;;;20726137;28;20030;-72
2022/09/18 09:21:37;;;;;;;4.03;0.52;;;20.80;49.80;;;;;;20747825;28;20396;-73
2022/09/18 09:31:51;;;;;;;1.50;0.45;;;20.80;49.50;;;;;;20695103;28;20744;-77
2022/09/18 09:42:20;;;;;;;3.88;0.90;;;20.90;49.10;;;;;;20661346;28;20049;-77
2022/09/18 09:52:25;;;;;;;1.00;0.55;;;21.10;48.90;;;;;;20717998;28;20168;-74
2022/09/18 10:02:48;;;;;;;2.58;0.60;;;21.10;48.40;;;;;;20691133;28;20050;-76
2022/09/18 10:13:02;;;;;;;1.30;0.60;;;21.20;48.00;;;;;;20745841;28;20046;-75
2022/09/18 10:23:28;;;;;;;1.92;0.68;;;21.30;47.70;;;;;;20764595;28;20038;-75
2022/09/18 10:33:34;;;;;;;;;;;21.40;47.40;;;;;;20721079;28;20038;-75
2022/09/18 10:43:49;;;;;;;0.98;0.40;;;21.50;47.00;;;;;;20730093;28;19928;-75
2022/09/18 10:54:12;;;;;;;1.77;0.50;;;21.60;46.90;;;;;;20732330;28;20026;-77
2022/09/18 11:04:27;;;;;;;1.75;0.50;;;21.80;46.50;;;;;;20733889;28;20037;-79
2022/09/18 11:14:30;;;;;;;2.40;0.50;;;21.90;46.20;;;;;;20773176;28;20037;-73
2022/09/18 11:24:41;;;;;;;2.30;0.43;;;22.00;46.10;;;;;;20771902;28;20038;-73
2022/09/18 11:34:55;;;;;;;0.77;0.20;;;22.00;46.00;;;;;;20730489;28;20554;-74
2022/09/18 11:45:16;;;;;;;0.80;0.43;;;22.10;45.90;;;;;;20715221;28;20029;-81
2022/09/18 11:55:23;;;;;;;1.75;0.55;;;22.10;45.80;;;;;;20713992;28;20050;-78
2022/09/18 12:05:51;;;;;;;0.90;0.30;;;22.20;46.60;;;;;;20737698;28;20033;-85
2022/09/18 12:16:17;;;;;;;1.38;0.30;;;22.30;45.80;;;;;;20777148;28;20053;-80
2022/09/18 12:26:30;;;;;;;1.00;0.30;;;22.30;45.60;;;;;;20705026;28;20062;-81
2022/09/18 12:36:41;;;;;;;1.27;0.50;;;22.30;45.50;;;;;;20691238;28;20046;-79
2022/09/18 12:47:04;;;;;;;0.57;0.22;;;22.30;45.50;;;;;;20721145;28;20448;-75
2022/09/18 12:57:31;;;;;;;1.33;0.30;;;22.30;45.50;;;;;;20740844;28;20042;-73
2022/09/18 13:07:38;;;;;;;1.15;0.60;;;22.30;45.60;;;;;;20777198;28;20132;-74
2022/09/18 13:17:43;;;;;;;1.05;0.40;;;22.30;45.70;;;;;;20800281;28;20128;-81
2022/09/18 13:27:43;;;;;;;0.60;0.40;;;22.30;45.90;;;;;;20725423;28;20034;-83
2022/09/18 13:37:44;;;;;;;0.65;0.38;;;22.30;45.90;;;;;;20708182;28;20038;-82
2022/09/18 13:48:05;;;;;;;0.67;0.20;;;22.30;46.00;;;;;;20735606;28;20121;-82
2022/09/18 13:58:32;;;;;;;8.48;0.45;;;22.30;46.00;;;;;;20730843;28;20296;-83
2022/09/18 14:08:36;;;;;;;2.15;0.40;;;22.30;46.00;;;;;;20725515;28;20461;-84
2022/09/18 14:18:48;;;;;;;2.28;0.30;;;22.30;46.00;;;;;;20712199;28;20041;-78
2022/09/18 14:28:48;;;;;;;78.80;7.82;;;23.00;45.60;;;;;;20670946;28;20030;-81
2022/09/18 14:38:49;;;;;;;26.65;3.88;;;24.00;43.10;;;;;;20681792;28;20034;-78
2022/09/18 14:48:49;;;;;;;16.50;2.10;;;23.60;43.50;;;;;;20750666;28;20034;-81
2022/09/18 14:58:50;;;;;;;15.23;2.30;;;23.10;44.10;;;;;;20766062;28;20065;-78
2022/09/18 15:08:52;;;;;;;14.38;2.30;;;22.50;45.10;;;;;;20734359;28;20054;-77
2022/09/18 15:18:53;;;;;;;5.90;1.33;;;22.00;46.10;;;;;;20747899;28;20072;-76
2022/09/18 15:28:53;;;;;;;8.68;1.65;;;22.40;45.70;;;;;;20721657;28;20030;-80
2022/09/18 15:38:54;;;;;;;2.88;0.85;;;22.90;44.80;;;;;;20728852;28;20096;-78
2022/09/18 15:48:59;;;;;;;1.60;0.80;;;23.10;44.30;;;;;;20742420;28;20037;-79
2022/09/18 15:59:02;;;;;;;3.30;0.90;;;23.10;44.30;;;;;;20788050;28;20112;-82
2022/09/18 16:09:04;;;;;;;7.68;1.80;;;23.10;44.30;;;;;;20726200;28;20037;-78
2022/09/18 16:19:09;;;;;;;4.57;1.15;;;23.00;44.30;;;;;;20736195;28;20030;-82
2022/09/18 16:29:20;;;;;;;1.33;0.77;;;23.00;44.70;;;;;;20727594;28;20037;-81
2022/09/18 16:39:22;;;;;;;2.33;0.52;;;22.90;44.70;;;;;;20709925;28;20042;-82
2022/09/18 16:49:25;;;;;;;3.58;0.80;;;23.00;44.80;;;;;;20750855;28;20129;-82
2022/09/18 16:59:27;;;;;;;2.20;0.68;;;22.90;45.00;;;;;;20806721;28;20037;-82
2022/09/18 17:09:28;;;;;;;1.25;0.40;;;22.90;45.00;;;;;;20745942;28;20034;-84
2022/09/18 17:19:29;;;;;;;1.83;0.38;;;22.80;45.10;;;;;;20716993;28;20085;-83
2022/09/18 17:29:30;;;;;;;0.55;0.35;;;22.80;45.20;;;;;;20731649;28;20045;-81
2022/09/18 17:39:31;;;;;;;1.50;0.40;;;22.80;45.40;;;;;;20671808;28;20103;-77
2022/09/18 17:49:32;;;;;;;0.95;0.35;;;22.70;45.40;;;;;;20745246;28;20041;-77
2022/09/18 17:59:32;;;;;;;2.92;0.43;;;22.60;45.50;;;;;;20719422;28;20080;-77
2022/09/18 18:09:36;;;;;;;2.45;0.60;;;22.60;45.60;;;;;;20721366;28;20042;-76
2022/09/18 18:19:37;;;;;;;1.52;0.63;;;22.50;45.70;;;;;;20724763;28;20044;-77
2022/09/18 18:29:38;;;;;;;0.70;0.38;;;22.50;45.80;;;;;;20748043;28;20057;-77
2022/09/18 18:39:38;;;;;;;0.95;0.68;;;22.50;45.90;;;;;;20756898;28;20771;-77
2022/09/18 18:49:39;;;;;;;2.63;0.60;;;22.40;46.10;;;;;;20766714;28;20045;-77
2022/09/18 18:59:42;;;;;;;0.47;0.30;;;22.40;46.20;;;;;;20776515;28;20296;-77
2022/09/18 19:09:42;;;;;;;0.60;0.30;;;22.30;46.30;;;;;;20646130;28;20034;-77
2022/09/18 19:19:43;;;;;;;1.30;0.50;;;22.30;46.40;;;;;;20705246;28;20120;-76
2022/09/18 19:29:44;;;;;;;0.73;0.40;;;22.30;46.60;;;;;;20725086;28;20297;-76
2022/09/18 19:39:47;;;;;;;1.75;0.40;;;22.20;46.70;;;;;;20711720;28;20040;-77
2022/09/18 19:49:49;;;;;;;2.15;0.55;;;22.20;46.80;;;;;;20744521;28;20432;-77
2022/09/18 19:59:54;;;;;;;2.33;0.80;;;22.20;46.90;;;;;;20727388;28;20087;-77
2022/09/18 20:09:55;;;;;;;1.67;0.43;;;22.10;46.90;;;;;;20743458;28;20034;-77
2022/09/18 20:19:55;;;;;;;1.47;0.70;;;22.00;47.00;;;;;;20720299;28;20308;-77
2022/09/18 20:29:56;;;;;;;2.30;1.03;;;22.00;47.10;;;;;;20723427;28;20375;-76
2022/09/18 20:40:00;;;;;;;1.10;0.50;;;22.00;47.20;;;;;;20790559;28;20379;-77
2022/09/18 20:50:06;;;;;;;1.55;0.40;;;22.00;47.30;;;;;;20725190;28;20289;-77
2022/09/18 21:00:08;;;;;;;2.13;0.60;;;22.00;47.40;;;;;;20724822;28;20042;-77
2022/09/18 21:10:12;;;;;;;3.58;0.50;;;21.90;47.50;;;;;;20724619;28;20041;-77
2022/09/18 21:20:12;;;;;;;1.17;0.40;;;21.90;47.50;;;;;;20666493;28;20041;-77
2022/09/18 21:30:14;;;;;;;1.88;0.52;;;21.80;47.60;;;;;;20762230;28;20033;-76
2022/09/18 21:40:14;;;;;;;1.40;0.43;;;21.80;47.70;;;;;;20782492;28;20072;-76
2022/09/18 21:50:15;;;;;;;1.08;0.80;;;21.70;47.70;;;;;;20755358;28;20484;-77
2022/09/18 22:00:15;;;;;;;2.37;0.60;;;21.70;47.80;;;;;;20752359;28;20044;-77
2022/09/18 22:10:16;;;;;;;0.70;0.40;;;21.70;47.90;;;;;;20721445;28;20492;-76
2022/09/18 22:20:16;;;;;;;1.50;0.60;;;21.70;48.00;;;;;;20753572;28;20038;-77
2022/09/18 22:30:17;;;;;;;2.55;0.73;;;21.70;48.00;;;;;;20784302;28;20303;-77
2022/09/18 22:40:18;;;;;;;2.15;0.50;;;21.60;48.10;;;;;;20778845;28;20120;-76
2022/09/18 22:50:19;;;;;;;1.23;0.40;;;21.60;48.20;;;;;;20734733;28;20026;-76
2022/09/18 23:00:19;;;;;;;2.42;0.60;;;21.60;48.20;;;;;;20751797;28;20118;-76
2022/09/18 23:10:20;;;;;;;2.58;0.32;;;21.60;48.30;;;;;;20732759;28;20053;-76
2022/09/18 23:20:21;;;;;;;1.33;0.50;;;21.50;48.30;;;;;;20756420;28;20533;-76
2022/09/18 23:30:24;;;;;;;1.40;0.57;;;21.50;48.40;;;;;;20715100;28;20038;-77
2022/09/18 23:40:24;;;;;;;0.82;0.40;;;21.50;48.50;;;;;;20714539;28;20293;-77
2022/09/18 23:50:25;;;;;;;1.25;0.40;;;21.50;48.60;;;;;;20747410;28;20116;-77
